Coleman Falls, Virginia
Current Conditions -  °F | °C
As of 11:54 AM on Wednesday 22 Oct 2014 (Local Time) from KLYH Reporting Station
Broken Clouds Broken Clouds  
Wind Chill: 57°   Ceiling: 5500
Heat Index: 57°   Visibility: 10mi
Dew Point: 41°   Wind: 8mph
Humidity: 55%   Direction: 330°NNW
Pressure: 30.03"   Gusts: NA
Location:  37.5°N, 79.3°W
Report Text: KLYH 221554Z 33007KT 290V360 10SM SCT045 BKN055 14/05 A3003 RMK AO2 SLP167 T01390050
Loading
Personal Weather Stations






























Interactive Weather Map
Tropical Storm Tracking
New forecast layout! Learn more

10-Day Weather Forecast

Advertisements
Track Severe Weather on mobile